sensor_id;sensor_type;location;lat;lon;timestamp;P1;durP1;ratioP1;P2;durP2;ratioP2
41719;SDS011;27405;53.316;-6.294;2022-09-09T00:04:51;43.33;;;38.53;;
41719;SDS011;27405;53.316;-6.294;2022-09-09T00:07:40;103.82;;;45.90;;
41719;SDS011;27405;53.316;-6.294;2022-09-09T00:18:31;30.33;;;28.17;;
41719;SDS011;27405;53.316;-6.294;2022-09-09T00:21:19;24.05;;;22.48;;
41719;SDS011;27405;53.316;-6.294;2022-09-09T00:23:58;63.80;;;55.78;;
41719;SDS011;27405;53.316;-6.294;2022-09-09T00:31:42;339.75;;;316.85;;
41719;SDS011;27405;53.316;-6.294;2022-09-09T00:34:12;505.77;;;461.50;;
41719;SDS011;27405;53.316;-6.294;2022-09-09T00:36:41;526.75;;;489.40;;
41719;SDS011;27405;53.316;-6.294;2022-09-09T00:39:20;534.60;;;494.90;;
41719;SDS011;27405;53.316;-6.294;2022-09-09T00:44:38;638.90;;;589.65;;
41719;SDS011;27405;53.316;-6.294;2022-09-09T00:47:21;587.47;;;538.55;;
41719;SDS011;27405;53.316;-6.294;2022-09-09T00:57:58;586.10;;;539.42;;
41719;SDS011;27405;53.316;-6.294;2022-09-09T01:00:25;515.03;;;476.00;;
41719;SDS011;27405;53.316;-6.294;2022-09-09T01:07:57;401.10;;;377.58;;
41719;SDS011;27405;53.316;-6.294;2022-09-09T01:10:34;245.75;;;233.55;;
41719;SDS011;27405;53.316;-6.294;2022-09-09T01:13:28;448.67;;;422.83;;
41719;SDS011;27405;53.316;-6.294;2022-09-09T01:15:59;265.85;;;252.80;;
41719;SDS011;27405;53.316;-6.294;2022-09-09T01:18:34;318.65;;;302.00;;
41719;SDS011;27405;53.316;-6.294;2022-09-09T01:21:16;484.17;;;453.17;;
41719;SDS011;27405;53.316;-6.294;2022-09-09T01:26:52;881.95;;;810.97;;
41719;SDS011;27405;53.316;-6.294;2022-09-09T01:29:23;788.58;;;725.15;;
41719;SDS011;27405;53.316;-6.294;2022-09-09T01:34:21;759.50;;;697.00;;
41719;SDS011;27405;53.316;-6.294;2022-09-09T01:39:35;860.55;;;790.78;;
41719;SDS011;27405;53.316;-6.294;2022-09-09T01:42:03;788.08;;;724.22;;
41719;SDS011;27405;53.316;-6.294;2022-09-09T01:44:31;670.75;;;615.47;;
41719;SDS011;27405;53.316;-6.294;2022-09-09T01:46:57;507.88;;;469.17;;
41719;SDS011;27405;53.316;-6.294;2022-09-09T01:49:23;367.23;;;344.80;;
41719;SDS011;27405;53.316;-6.294;2022-09-09T01:51:50;371.15;;;346.75;;
41719;SDS011;27405;53.316;-6.294;2022-09-09T01:54:19;310.30;;;292.42;;
41719;SDS011;27405;53.316;-6.294;2022-09-09T02:08:18;118.88;;;111.75;;
41719;SDS011;27405;53.316;-6.294;2022-09-09T02:13:14;50.63;;;47.58;;
41719;SDS011;27405;53.316;-6.294;2022-09-09T02:15:47;188.98;;;178.80;;
41719;SDS011;27405;53.316;-6.294;2022-09-09T02:18:36;64.00;;;59.97;;
41719;SDS011;27405;53.316;-6.294;2022-09-09T02:21:13;380.15;;;349.33;;
41719;SDS011;27405;53.316;-6.294;2022-09-09T02:23:41;1814.10;;;828.00;;
41719;SDS011;27405;53.316;-6.294;2022-09-09T02:26:08;134.30;;;126.03;;
41719;SDS011;27405;53.316;-6.294;2022-09-09T02:28:37;1966.25;;;635.95;;
41719;SDS011;27405;53.316;-6.294;2022-09-09T02:31:05;237.68;;;156.13;;
41719;SDS011;27405;53.316;-6.294;2022-09-09T02:33:33;51.35;;;47.80;;
41719;SDS011;27405;53.316;-6.294;2022-09-09T02:36:03;497.95;;;314.08;;
41719;SDS011;27405;53.316;-6.294;2022-09-09T02:38:33;53.60;;;50.50;;
41719;SDS011;27405;53.316;-6.294;2022-09-09T02:41:02;1692.93;;;729.90;;
41719;SDS011;27405;53.316;-6.294;2022-09-09T02:43:32;40.45;;;38.05;;
41719;SDS011;27405;53.316;-6.294;2022-09-09T02:46:19;59.05;;;55.83;;
41719;SDS011;27405;53.316;-6.294;2022-09-09T02:54:10;129.90;;;90.18;;
41719;SDS011;27405;53.316;-6.294;2022-09-09T02:56:51;150.63;;;103.13;;
41719;SDS011;27405;53.316;-6.294;2022-09-09T02:59:21;203.32;;;85.40;;
41719;SDS011;27405;53.316;-6.294;2022-09-09T03:01:49;143.57;;;94.60;;
41719;SDS011;27405;53.316;-6.294;2022-09-09T03:04:15;87.85;;;78.57;;
41719;SDS011;27405;53.316;-6.294;2022-09-09T03:06:40;163.75;;;94.43;;
41719;SDS011;27405;53.316;-6.294;2022-09-09T03:09:06;78.65;;;70.78;;
41719;SDS011;27405;53.316;-6.294;2022-09-09T03:11:35;201.95;;;109.32;;
41719;SDS011;27405;53.316;-6.294;2022-09-09T03:14:01;142.10;;;125.45;;
41719;SDS011;27405;53.316;-6.294;2022-09-09T03:16:27;314.85;;;182.07;;
41719;SDS011;27405;53.316;-6.294;2022-09-09T03:18:53;253.85;;;182.02;;
41719;SDS011;27405;53.316;-6.294;2022-09-09T03:21:19;242.18;;;230.63;;
41719;SDS011;27405;53.316;-6.294;2022-09-09T03:23:45;271.80;;;257.20;;
41719;SDS011;27405;53.316;-6.294;2022-09-09T03:26:11;211.65;;;200.23;;
41719;SDS011;27405;53.316;-6.294;2022-09-09T03:28:36;131.45;;;124.68;;
41719;SDS011;27405;53.316;-6.294;2022-09-09T03:31:02;242.60;;;228.63;;
41719;SDS011;27405;53.316;-6.294;2022-09-09T03:33:30;603.03;;;559.10;;
41719;SDS011;27405;53.316;-6.294;2022-09-09T03:35:56;708.85;;;651.30;;
41719;SDS011;27405;53.316;-6.294;2022-09-09T03:38:22;503.27;;;464.27;;
41719;SDS011;27405;53.316;-6.294;2022-09-09T03:40:52;662.45;;;607.95;;
41719;SDS011;27405;53.316;-6.294;2022-09-09T03:43:20;649.05;;;593.17;;
41719;SDS011;27405;53.316;-6.294;2022-09-09T03:45:46;561.33;;;520.78;;
41719;SDS011;27405;53.316;-6.294;2022-09-09T03:48:13;538.00;;;501.30;;
41719;SDS011;27405;53.316;-6.294;2022-09-09T03:50:43;650.60;;;600.72;;
41719;SDS011;27405;53.316;-6.294;2022-09-09T03:53:13;640.78;;;590.20;;
41719;SDS011;27405;53.316;-6.294;2022-09-09T03:55:48;577.20;;;535.40;;
41719;SDS011;27405;53.316;-6.294;2022-09-09T03:58:15;277.25;;;263.15;;
41719;SDS011;27405;53.316;-6.294;2022-09-09T04:00:44;314.93;;;299.17;;
41719;SDS011;27405;53.316;-6.294;2022-09-09T04:03:22;411.98;;;388.85;;
41719;SDS011;27405;53.316;-6.294;2022-09-09T04:05:49;465.80;;;436.65;;
41719;SDS011;27405;53.316;-6.294;2022-09-09T04:08:19;446.88;;;417.35;;
41719;SDS011;27405;53.316;-6.294;2022-09-09T04:10:46;167.95;;;159.82;;
41719;SDS011;27405;53.316;-6.294;2022-09-09T04:13:13;309.00;;;293.05;;
41719;SDS011;27405;53.316;-6.294;2022-09-09T04:15:41;542.33;;;503.17;;
41719;SDS011;27405;53.316;-6.294;2022-09-09T04:18:07;291.75;;;275.67;;
41719;SDS011;27405;53.316;-6.294;2022-09-09T04:20:33;437.38;;;406.45;;
41719;SDS011;27405;53.316;-6.294;2022-09-09T04:22:59;462.58;;;430.90;;
41719;SDS011;27405;53.316;-6.294;2022-09-09T04:25:25;294.35;;;277.98;;
41719;SDS011;27405;53.316;-6.294;2022-09-09T04:27:54;580.25;;;534.63;;
41719;SDS011;27405;53.316;-6.294;2022-09-09T04:30:20;589.92;;;545.72;;
41719;SDS011;27405;53.316;-6.294;2022-09-09T04:32:47;437.80;;;407.98;;
41719;SDS011;27405;53.316;-6.294;2022-09-09T04:35:12;571.13;;;530.60;;
41719;SDS011;27405;53.316;-6.294;2022-09-09T04:37:38;383.08;;;359.77;;
41719;SDS011;27405;53.316;-6.294;2022-09-09T04:40:04;401.77;;;375.23;;
41719;SDS011;27405;53.316;-6.294;2022-09-09T04:42:34;323.85;;;306.23;;
41719;SDS011;27405;53.316;-6.294;2022-09-09T04:45:00;486.77;;;452.13;;
41719;SDS011;27405;53.316;-6.294;2022-09-09T04:47:26;429.95;;;403.42;;
41719;SDS011;27405;53.316;-6.294;2022-09-09T04:49:52;658.78;;;605.05;;
41719;SDS011;27405;53.316;-6.294;2022-09-09T04:52:19;565.35;;;524.15;;
41719;SDS011;27405;53.316;-6.294;2022-09-09T04:54:45;473.02;;;440.77;;
41719;SDS011;27405;53.316;-6.294;2022-09-09T04:57:11;338.60;;;320.15;;
41719;SDS011;27405;53.316;-6.294;2022-09-09T04:59:37;285.10;;;270.63;;
41719;SDS011;27405;53.316;-6.294;2022-09-09T05:02:04;245.80;;;233.70;;
41719;SDS011;27405;53.316;-6.294;2022-09-09T05:04:30;295.63;;;278.90;;
41719;SDS011;27405;53.316;-6.294;2022-09-09T05:06:56;314.98;;;297.67;;
41719;SDS011;27405;53.316;-6.294;2022-09-09T05:09:21;445.10;;;415.55;;
41719;SDS011;27405;53.316;-6.294;2022-09-09T05:11:47;476.63;;;445.45;;
41719;SDS011;27405;53.316;-6.294;2022-09-09T05:14:13;542.13;;;503.33;;
41719;SDS011;27405;53.316;-6.294;2022-09-09T05:16:39;486.10;;;447.48;;
41719;SDS011;27405;53.316;-6.294;2022-09-09T05:19:05;637.53;;;581.95;;
41719;SDS011;27405;53.316;-6.294;2022-09-09T05:21:33;510.90;;;472.95;;
41719;SDS011;27405;53.316;-6.294;2022-09-09T05:23:59;328.05;;;307.90;;
41719;SDS011;27405;53.316;-6.294;2022-09-09T05:26:25;335.15;;;315.75;;
41719;SDS011;27405;53.316;-6.294;2022-09-09T05:28:51;440.75;;;411.60;;
41719;SDS011;27405;53.316;-6.294;2022-09-09T05:31:17;474.17;;;441.35;;
41719;SDS011;27405;53.316;-6.294;2022-09-09T05:33:44;580.63;;;535.00;;
41719;SDS011;27405;53.316;-6.294;2022-09-09T05:36:12;522.05;;;481.98;;
41719;SDS011;27405;53.316;-6.294;2022-09-09T05:38:39;336.50;;;315.90;;
41719;SDS011;27405;53.316;-6.294;2022-09-09T05:41:06;298.63;;;282.70;;
41719;SDS011;27405;53.316;-6.294;2022-09-09T05:43:32;492.45;;;456.27;;
41719;SDS011;27405;53.316;-6.294;2022-09-09T05:46:10;376.90;;;354.70;;
41719;SDS011;27405;53.316;-6.294;2022-09-09T05:48:38;590.10;;;542.75;;
41719;SDS011;27405;53.316;-6.294;2022-09-09T05:51:06;332.77;;;318.38;;
41719;SDS011;27405;53.316;-6.294;2022-09-09T05:53:35;41.58;;;39.17;;
41719;SDS011;27405;53.316;-6.294;2022-09-09T05:56:02;67.18;;;63.78;;
41719;SDS011;27405;53.316;-6.294;2022-09-09T05:58:35;55.20;;;52.25;;
41719;SDS011;27405;53.316;-6.294;2022-09-09T06:01:22;31.25;;;29.33;;
41719;SDS011;27405;53.316;-6.294;2022-09-09T06:03:48;34.25;;;32.15;;
41719;SDS011;27405;53.316;-6.294;2022-09-09T06:06:16;264.83;;;253.57;;
41719;SDS011;27405;53.316;-6.294;2022-09-09T06:08:45;148.00;;;141.57;;
41719;SDS011;27405;53.316;-6.294;2022-09-09T06:11:15;30.80;;;28.90;;
41719;SDS011;27405;53.316;-6.294;2022-09-09T06:13:43;16.15;;;15.10;;
41719;SDS011;27405;53.316;-6.294;2022-09-09T06:16:12;14.30;;;13.38;;
41719;SDS011;27405;53.316;-6.294;2022-09-09T06:18:41;12.25;;;11.52;;
41719;SDS011;27405;53.316;-6.294;2022-09-09T06:21:27;6.57;;;6.22;;
41719;SDS011;27405;53.316;-6.294;2022-09-09T06:23:55;126.40;;;120.57;;
41719;SDS011;27405;53.316;-6.294;2022-09-09T06:28:48;13.13;;;12.32;;
41719;SDS011;27405;53.316;-6.294;2022-09-09T06:31:15;260.77;;;246.73;;
41719;SDS011;27405;53.316;-6.294;2022-09-09T06:33:42;189.20;;;179.90;;
41719;SDS011;27405;53.316;-6.294;2022-09-09T06:36:12;336.88;;;314.42;;
41719;SDS011;27405;53.316;-6.294;2022-09-09T06:38:40;207.73;;;196.27;;
41719;SDS011;27405;53.316;-6.294;2022-09-09T06:41:09;21.90;;;19.90;;
41719;SDS011;27405;53.316;-6.294;2022-09-09T06:43:36;4.50;;;4.30;;
41719;SDS011;27405;53.316;-6.294;2022-09-09T06:48:35;10.98;;;10.35;;
41719;SDS011;27405;53.316;-6.294;2022-09-09T06:53:36;10.43;;;9.77;;
41719;SDS011;27405;53.316;-6.294;2022-09-09T06:56:17;18.63;;;17.38;;
41719;SDS011;27405;53.316;-6.294;2022-09-09T06:58:48;3.47;;;3.30;;
41719;SDS011;27405;53.316;-6.294;2022-09-09T07:01:19;57.33;;;53.92;;
41719;SDS011;27405;53.316;-6.294;2022-09-09T07:03:47;3.67;;;3.50;;
41719;SDS011;27405;53.316;-6.294;2022-09-09T07:06:19;227.80;;;205.68;;
41719;SDS011;27405;53.316;-6.294;2022-09-09T07:08:50;1179.05;;;553.60;;
41719;SDS011;27405;53.316;-6.294;2022-09-09T07:11:21;18.88;;;17.42;;
41719;SDS011;27405;53.316;-6.294;2022-09-09T07:13:48;21.83;;;20.38;;
41719;SDS011;27405;53.316;-6.294;2022-09-09T07:16:15;5.07;;;4.80;;
41719;SDS011;27405;53.316;-6.294;2022-09-09T07:18:42;3.42;;;3.30;;
41719;SDS011;27405;53.316;-6.294;2022-09-09T07:21:12;3.28;;;3.13;;
41719;SDS011;27405;53.316;-6.294;2022-09-09T07:23:40;13.77;;;12.82;;
41719;SDS011;27405;53.316;-6.294;2022-09-09T07:26:10;17.33;;;16.40;;
41719;SDS011;27405;53.316;-6.294;2022-09-09T07:28:37;1.50;;;1.50;;
41719;SDS011;27405;53.316;-6.294;2022-09-09T07:31:03;8.05;;;7.63;;
41719;SDS011;27405;53.316;-6.294;2022-09-09T07:33:30;277.95;;;99.70;;
41719;SDS011;27405;53.316;-6.294;2022-09-09T07:36:05;1.50;;;1.50;;
41719;SDS011;27405;53.316;-6.294;2022-09-09T07:38:41;2.72;;;2.55;;
41719;SDS011;27405;53.316;-6.294;2022-09-09T07:41:13;4.28;;;4.07;;
41719;SDS011;27405;53.316;-6.294;2022-09-09T07:46:07;1.40;;;1.40;;
41719;SDS011;27405;53.316;-6.294;2022-09-09T07:48:34;22.52;;;13.35;;
41719;SDS011;27405;53.316;-6.294;2022-09-09T07:51:10;16.00;;;14.65;;
41719;SDS011;27405;53.316;-6.294;2022-09-09T07:53:45;33.60;;;25.05;;
41719;SDS011;27405;53.316;-6.294;2022-09-09T07:56:12;61.20;;;42.63;;
41719;SDS011;27405;53.316;-6.294;2022-09-09T07:58:42;10.85;;;9.77;;
41719;SDS011;27405;53.316;-6.294;2022-09-09T08:01:11;23.13;;;19.17;;
41719;SDS011;27405;53.316;-6.294;2022-09-09T08:03:43;16.45;;;13.30;;
41719;SDS011;27405;53.316;-6.294;2022-09-09T08:06:17;27.20;;;24.35;;
41719;SDS011;27405;53.316;-6.294;2022-09-09T08:08:43;16.67;;;15.23;;
41719;SDS011;27405;53.316;-6.294;2022-09-09T08:11:09;18.10;;;12.10;;
41719;SDS011;27405;53.316;-6.294;2022-09-09T08:13:37;12.82;;;11.68;;
41719;SDS011;27405;53.316;-6.294;2022-09-09T08:16:05;16.92;;;15.18;;
41719;SDS011;27405;53.316;-6.294;2022-09-09T08:18:32;20.08;;;13.77;;
41719;SDS011;27405;53.316;-6.294;2022-09-09T08:21:04;11.48;;;10.57;;
41719;SDS011;27405;53.316;-6.294;2022-09-09T08:23:36;34.85;;;12.27;;
41719;SDS011;27405;53.316;-6.294;2022-09-09T08:26:13;17.35;;;12.45;;
41719;SDS011;27405;53.316;-6.294;2022-09-09T08:28:41;31.83;;;15.85;;
41719;SDS011;27405;53.316;-6.294;2022-09-09T08:31:12;7.32;;;6.57;;
41719;SDS011;27405;53.316;-6.294;2022-09-09T08:33:41;12.02;;;11.13;;
41719;SDS011;27405;53.316;-6.294;2022-09-09T08:36:11;18.88;;;10.55;;
41719;SDS011;27405;53.316;-6.294;2022-09-09T08:38:43;13.95;;;12.68;;
41719;SDS011;27405;53.316;-6.294;2022-09-09T08:43:46;14.27;;;13.15;;
41719;SDS011;27405;53.316;-6.294;2022-09-09T08:48:56;6.72;;;6.18;;
41719;SDS011;27405;53.316;-6.294;2022-09-09T08:51:27;9.98;;;9.32;;
41719;SDS011;27405;53.316;-6.294;2022-09-09T08:53:56;9.95;;;8.85;;
41719;SDS011;27405;53.316;-6.294;2022-09-09T08:56:27;11.77;;;10.60;;
41719;SDS011;27405;53.316;-6.294;2022-09-09T08:58:56;3.22;;;3.08;;
41719;SDS011;27405;53.316;-6.294;2022-09-09T09:04:10;2.10;;;1.90;;
41719;SDS011;27405;53.316;-6.294;2022-09-09T09:12:24;9.48;;;8.45;;
41719;SDS011;27405;53.316;-6.294;2022-09-09T09:14:54;3.45;;;3.20;;
41719;SDS011;27405;53.316;-6.294;2022-09-09T09:17:21;3.58;;;3.35;;
41719;SDS011;27405;53.316;-6.294;2022-09-09T09:19:50;8.75;;;8.07;;
41719;SDS011;27405;53.316;-6.294;2022-09-09T09:24:55;8.48;;;7.82;;
41719;SDS011;27405;53.316;-6.294;2022-09-09T09:30:16;20.75;;;18.67;;
41719;SDS011;27405;53.316;-6.294;2022-09-09T09:33:00;26.95;;;16.88;;
41719;SDS011;27405;53.316;-6.294;2022-09-09T09:35:31;7.70;;;7.13;;
41719;SDS011;27405;53.316;-6.294;2022-09-09T09:37:57;8.15;;;7.35;;
41719;SDS011;27405;53.316;-6.294;2022-09-09T09:40:26;5.57;;;5.18;;
41719;SDS011;27405;53.316;-6.294;2022-09-09T09:42:58;9.05;;;8.40;;
41719;SDS011;27405;53.316;-6.294;2022-09-09T09:47:59;9.18;;;4.80;;
41719;SDS011;27405;53.316;-6.294;2022-09-09T09:50:40;9.10;;;8.30;;
41719;SDS011;27405;53.316;-6.294;2022-09-09T09:53:18;8.77;;;8.18;;
41719;SDS011;27405;53.316;-6.294;2022-09-09T09:55:58;0.60;;;0.60;;
41719;SDS011;27405;53.316;-6.294;2022-09-09T09:58:33;1.67;;;1.65;;
41719;SDS011;27405;53.316;-6.294;2022-09-09T10:03:50;2.97;;;2.78;;
41719;SDS011;27405;53.316;-6.294;2022-09-09T10:06:17;7.50;;;6.90;;
41719;SDS011;27405;53.316;-6.294;2022-09-09T10:08:58;2.10;;;2.00;;
41719;SDS011;27405;53.316;-6.294;2022-09-09T10:11:29;6.25;;;5.47;;
41719;SDS011;27405;53.316;-6.294;2022-09-09T10:16:49;3.55;;;3.35;;
41719;SDS011;27405;53.316;-6.294;2022-09-09T10:19:34;2.83;;;2.73;;
41719;SDS011;27405;53.316;-6.294;2022-09-09T10:31:06;2.28;;;2.17;;
41719;SDS011;27405;53.316;-6.294;2022-09-09T10:33:58;4.15;;;3.85;;
41719;SDS011;27405;53.316;-6.294;2022-09-09T10:36:48;4.18;;;3.95;;
41719;SDS011;27405;53.316;-6.294;2022-09-09T10:39:26;5.25;;;4.90;;
41719;SDS011;27405;53.316;-6.294;2022-09-09T10:42:12;3.80;;;3.47;;
41719;SDS011;27405;53.316;-6.294;2022-09-09T10:53:35;12.07;;;9.07;;
41719;SDS011;27405;53.316;-6.294;2022-09-09T10:56:12;3.05;;;2.85;;
41719;SDS011;27405;53.316;-6.294;2022-09-09T11:01:17;10.02;;;5.68;;
41719;SDS011;27405;53.316;-6.294;2022-09-09T11:03:48;0.35;;;0.35;;
41719;SDS011;27405;53.316;-6.294;2022-09-09T11:06:56;4.72;;;4.38;;
41719;SDS011;27405;53.316;-6.294;2022-09-09T11:09:26;0.70;;;0.70;;
41719;SDS011;27405;53.316;-6.294;2022-09-09T11:11:57;2.78;;;2.63;;
41719;SDS011;27405;53.316;-6.294;2022-09-09T11:14:37;3.13;;;3.00;;
41719;SDS011;27405;53.316;-6.294;2022-09-09T11:17:15;3.80;;;3.50;;
41719;SDS011;27405;53.316;-6.294;2022-09-09T11:19:52;5.10;;;4.60;;
41719;SDS011;27405;53.316;-6.294;2022-09-09T11:22:34;2.47;;;2.38;;
41719;SDS011;27405;53.316;-6.294;2022-09-09T11:33:23;1.10;;;1.10;;
41719;SDS011;27405;53.316;-6.294;2022-09-09T11:42:05;2.72;;;2.63;;
41719;SDS011;27405;53.316;-6.294;2022-09-09T11:44:36;0.68;;;0.68;;
41719;SDS011;27405;53.316;-6.294;2022-09-09T11:47:02;0.75;;;0.75;;
41719;SDS011;27405;53.316;-6.294;2022-09-09T11:52:21;1.10;;;1.05;;
41719;SDS011;27405;53.316;-6.294;2022-09-09T11:54:50;5.95;;;5.35;;
41719;SDS011;27405;53.316;-6.294;2022-09-09T11:57:26;1.23;;;1.23;;
41719;SDS011;27405;53.316;-6.294;2022-09-09T11:59:59;1.60;;;1.55;;
41719;SDS011;27405;53.316;-6.294;2022-09-09T12:02:26;1.85;;;1.75;;
41719;SDS011;27405;53.316;-6.294;2022-09-09T12:07:38;0.40;;;0.40;;
41719;SDS011;27405;53.316;-6.294;2022-09-09T12:15:57;1.85;;;1.75;;
41719;SDS011;27405;53.316;-6.294;2022-09-09T12:18:45;0.10;;;0.10;;
41719;SDS011;27405;53.316;-6.294;2022-09-09T12:21:32;3.15;;;2.95;;
41719;SDS011;27405;53.316;-6.294;2022-09-09T12:24:49;2.03;;;1.92;;
41719;SDS011;27405;53.316;-6.294;2022-09-09T12:27:36;0.17;;;0.17;;
41719;SDS011;27405;53.316;-6.294;2022-09-09T12:30:09;0.55;;;0.55;;
41719;SDS011;27405;53.316;-6.294;2022-09-09T12:32:36;0.53;;;0.53;;
41719;SDS011;27405;53.316;-6.294;2022-09-09T12:35:04;0.38;;;0.38;;
41719;SDS011;27405;53.316;-6.294;2022-09-09T12:37:52;1.77;;;1.67;;
41719;SDS011;27405;53.316;-6.294;2022-09-09T12:40:25;2.70;;;2.53;;
41719;SDS011;27405;53.316;-6.294;2022-09-09T12:42:52;1.97;;;1.87;;
41719;SDS011;27405;53.316;-6.294;2022-09-09T12:45:21;0.08;;;0.08;;
41719;SDS011;27405;53.316;-6.294;2022-09-09T12:47:57;0.10;;;0.10;;
41719;SDS011;27405;53.316;-6.294;2022-09-09T12:50:37;0.88;;;0.88;;
41719;SDS011;27405;53.316;-6.294;2022-09-09T12:53:09;0.00;;;0.00;;
41719;SDS011;27405;53.316;-6.294;2022-09-09T12:55:49;2.70;;;2.55;;
41719;SDS011;27405;53.316;-6.294;2022-09-09T12:58:17;0.80;;;0.80;;
41719;SDS011;27405;53.316;-6.294;2022-09-09T13:00:53;0.40;;;0.40;;
41719;SDS011;27405;53.316;-6.294;2022-09-09T13:03:21;1.55;;;1.45;;
41719;SDS011;27405;53.316;-6.294;2022-09-09T13:05:48;4.03;;;2.75;;
41719;SDS011;27405;53.316;-6.294;2022-09-09T13:08:15;0.52;;;0.52;;
41719;SDS011;27405;53.316;-6.294;2022-09-09T13:10:53;1.02;;;1.02;;
41719;SDS011;27405;53.316;-6.294;2022-09-09T13:13:35;2.50;;;2.40;;
41719;SDS011;27405;53.316;-6.294;2022-09-09T13:16:03;0.03;;;0.03;;
41719;SDS011;27405;53.316;-6.294;2022-09-09T13:18:33;0.17;;;0.17;;
41719;SDS011;27405;53.316;-6.294;2022-09-09T13:21:01;0.28;;;0.28;;
41719;SDS011;27405;53.316;-6.294;2022-09-09T13:23:28;0.00;;;0.00;;
41719;SDS011;27405;53.316;-6.294;2022-09-09T13:26:00;1.33;;;1.23;;
41719;SDS011;27405;53.316;-6.294;2022-09-09T13:28:29;1.20;;;1.20;;
41719;SDS011;27405;53.316;-6.294;2022-09-09T13:31:02;0.70;;;0.70;;
41719;SDS011;27405;53.316;-6.294;2022-09-09T13:33:33;0.35;;;0.35;;
41719;SDS011;27405;53.316;-6.294;2022-09-09T13:36:05;2.53;;;2.33;;
41719;SDS011;27405;53.316;-6.294;2022-09-09T13:38:36;0.20;;;0.20;;
41719;SDS011;27405;53.316;-6.294;2022-09-09T13:41:07;0.03;;;0.03;;
41719;SDS011;27405;53.316;-6.294;2022-09-09T13:43:38;0.25;;;0.25;;
41719;SDS011;27405;53.316;-6.294;2022-09-09T13:51:39;1.35;;;1.25;;
41719;SDS011;27405;53.316;-6.294;2022-09-09T13:54:10;0.00;;;0.00;;
41719;SDS011;27405;53.316;-6.294;2022-09-09T13:56:37;0.10;;;0.10;;
41719;SDS011;27405;53.316;-6.294;2022-09-09T13:59:06;0.00;;;0.00;;
41719;SDS011;27405;53.316;-6.294;2022-09-09T14:01:38;0.30;;;0.30;;
41719;SDS011;27405;53.316;-6.294;2022-09-09T14:04:04;0.73;;;0.73;;
41719;SDS011;27405;53.316;-6.294;2022-09-09T14:06:31;0.00;;;0.00;;
41719;SDS011;27405;53.316;-6.294;2022-09-09T14:08:57;0.10;;;0.10;;
41719;SDS011;27405;53.316;-6.294;2022-09-09T14:11:23;0.20;;;0.20;;
41719;SDS011;27405;53.316;-6.294;2022-09-09T14:13:49;0.00;;;0.00;;
41719;SDS011;27405;53.316;-6.294;2022-09-09T14:16:15;1.13;;;1.02;;
41719;SDS011;27405;53.316;-6.294;2022-09-09T14:18:42;1.10;;;1.10;;
41719;SDS011;27405;53.316;-6.294;2022-09-09T14:21:09;0.20;;;0.20;;
41719;SDS011;27405;53.316;-6.294;2022-09-09T14:23:35;0.05;;;0.05;;
41719;SDS011;27405;53.316;-6.294;2022-09-09T14:26:00;0.22;;;0.22;;
41719;SDS011;27405;53.316;-6.294;2022-09-09T14:28:26;0.60;;;0.60;;
41719;SDS011;27405;53.316;-6.294;2022-09-09T14:30:53;0.22;;;0.22;;
41719;SDS011;27405;53.316;-6.294;2022-09-09T14:33:19;3.15;;;2.95;;
41719;SDS011;27405;53.316;-6.294;2022-09-09T14:35:45;0.00;;;0.00;;
41719;SDS011;27405;53.316;-6.294;2022-09-09T14:38:11;0.00;;;0.00;;
41719;SDS011;27405;53.316;-6.294;2022-09-09T14:40:37;0.13;;;0.13;;
41719;SDS011;27405;53.316;-6.294;2022-09-09T14:43:04;0.47;;;0.47;;
41719;SDS011;27405;53.316;-6.294;2022-09-09T14:45:30;0.30;;;0.30;;
41719;SDS011;27405;53.316;-6.294;2022-09-09T14:47:57;0.00;;;0.00;;
41719;SDS011;27405;53.316;-6.294;2022-09-09T14:50:23;0.00;;;0.00;;
41719;SDS011;27405;53.316;-6.294;2022-09-09T14:52:49;0.10;;;0.10;;
41719;SDS011;27405;53.316;-6.294;2022-09-09T14:55:15;0.28;;;0.28;;
41719;SDS011;27405;53.316;-6.294;2022-09-09T14:57:41;0.00;;;0.00;;
41719;SDS011;27405;53.316;-6.294;2022-09-09T15:00:08;0.00;;;0.00;;
41719;SDS011;27405;53.316;-6.294;2022-09-09T15:02:35;3.03;;;2.38;;
41719;SDS011;27405;53.316;-6.294;2022-09-09T15:05:00;0.00;;;0.00;;
41719;SDS011;27405;53.316;-6.294;2022-09-09T15:07:26;2.05;;;1.95;;
41719;SDS011;27405;53.316;-6.294;2022-09-09T15:09:53;0.00;;;0.00;;
41719;SDS011;27405;53.316;-6.294;2022-09-09T15:12:19;2.00;;;1.90;;
41719;SDS011;27405;53.316;-6.294;2022-09-09T15:14:46;0.00;;;0.00;;
41719;SDS011;27405;53.316;-6.294;2022-09-09T15:17:13;0.30;;;0.30;;
41719;SDS011;27405;53.316;-6.294;2022-09-09T15:19:39;0.00;;;0.00;;
41719;SDS011;27405;53.316;-6.294;2022-09-09T15:22:04;0.47;;;0.47;;
41719;SDS011;27405;53.316;-6.294;2022-09-09T15:24:34;0.00;;;0.00;;
41719;SDS011;27405;53.316;-6.294;2022-09-09T15:27:00;0.00;;;0.00;;
41719;SDS011;27405;53.316;-6.294;2022-09-09T15:29:26;0.00;;;0.00;;
41719;SDS011;27405;53.316;-6.294;2022-09-09T15:31:55;0.35;;;0.35;;
41719;SDS011;27405;53.316;-6.294;2022-09-09T15:34:21;1.70;;;1.60;;
41719;SDS011;27405;53.316;-6.294;2022-09-09T15:36:47;0.00;;;0.00;;
41719;SDS011;27405;53.316;-6.294;2022-09-09T15:39:16;1.00;;;1.00;;
41719;SDS011;27405;53.316;-6.294;2022-09-09T15:41:43;0.00;;;0.00;;
41719;SDS011;27405;53.316;-6.294;2022-09-09T15:44:10;0.00;;;0.00;;
41719;SDS011;27405;53.316;-6.294;2022-09-09T15:46:44;0.70;;;0.70;;
41719;SDS011;27405;53.316;-6.294;2022-09-09T15:49:14;0.00;;;0.00;;
41719;SDS011;27405;53.316;-6.294;2022-09-09T15:51:46;0.08;;;0.08;;
41719;SDS011;27405;53.316;-6.294;2022-09-09T15:54:16;0.00;;;0.00;;
41719;SDS011;27405;53.316;-6.294;2022-09-09T15:56:43;0.10;;;0.10;;
41719;SDS011;27405;53.316;-6.294;2022-09-09T15:59:10;0.00;;;0.00;;
41719;SDS011;27405;53.316;-6.294;2022-09-09T16:01:36;0.00;;;0.00;;
41719;SDS011;27405;53.316;-6.294;2022-09-09T16:04:04;1.45;;;1.35;;
41719;SDS011;27405;53.316;-6.294;2022-09-09T16:06:30;0.70;;;0.70;;
41719;SDS011;27405;53.316;-6.294;2022-09-09T16:08:56;1.00;;;1.00;;
41719;SDS011;27405;53.316;-6.294;2022-09-09T16:11:25;0.00;;;0.00;;
41719;SDS011;27405;53.316;-6.294;2022-09-09T16:13:53;0.00;;;0.00;;
41719;SDS011;27405;53.316;-6.294;2022-09-09T16:16:21;0.00;;;0.00;;
41719;SDS011;27405;53.316;-6.294;2022-09-09T16:23:44;0.00;;;0.00;;
41719;SDS011;27405;53.316;-6.294;2022-09-09T16:26:10;0.00;;;0.00;;
41719;SDS011;27405;53.316;-6.294;2022-09-09T16:28:38;0.43;;;0.43;;
41719;SDS011;27405;53.316;-6.294;2022-09-09T16:31:07;0.00;;;0.00;;
41719;SDS011;27405;53.316;-6.294;2022-09-09T16:33:35;0.00;;;0.00;;
41719;SDS011;27405;53.316;-6.294;2022-09-09T16:36:05;0.17;;;0.17;;
41719;SDS011;27405;53.316;-6.294;2022-09-09T16:38:31;0.00;;;0.00;;
41719;SDS011;27405;53.316;-6.294;2022-09-09T16:40:58;1.73;;;1.63;;
41719;SDS011;27405;53.316;-6.294;2022-09-09T16:43:25;0.10;;;0.10;;
41719;SDS011;27405;53.316;-6.294;2022-09-09T16:45:50;0.00;;;0.00;;
41719;SDS011;27405;53.316;-6.294;2022-09-09T16:48:16;0.00;;;0.00;;
41719;SDS011;27405;53.316;-6.294;2022-09-09T16:50:42;0.00;;;0.00;;
41719;SDS011;27405;53.316;-6.294;2022-09-09T16:53:07;0.00;;;0.00;;
41719;SDS011;27405;53.316;-6.294;2022-09-09T16:55:38;0.00;;;0.00;;
41719;SDS011;27405;53.316;-6.294;2022-09-09T16:58:05;0.00;;;0.00;;
41719;SDS011;27405;53.316;-6.294;2022-09-09T17:00:37;1.95;;;1.85;;
41719;SDS011;27405;53.316;-6.294;2022-09-09T17:03:03;0.13;;;0.13;;
41719;SDS011;27405;53.316;-6.294;2022-09-09T17:05:29;0.00;;;0.00;;